sensor_id;sensor_type;location;lat;lon;timestamp;P1;durP1;ratioP1;P2;durP2;ratioP2
55467;SDS011;41332;42.702;23.200;2023-07-20T00:01:11;6.70;;;1.63;;
55467;SDS011;41332;42.702;23.200;2023-07-20T00:03:37;7.30;;;2.05;;
55467;SDS011;41332;42.702;23.200;2023-07-20T00:06:02;4.05;;;3.22;;
55467;SDS011;41332;42.702;23.200;2023-07-20T00:08:29;4.32;;;2.08;;
55467;SDS011;41332;42.702;23.200;2023-07-20T00:10:55;5.97;;;2.08;;
55467;SDS011;41332;42.702;23.200;2023-07-20T00:13:20;4.57;;;1.90;;
55467;SDS011;41332;42.702;23.200;2023-07-20T00:15:46;4.65;;;2.80;;
55467;SDS011;41332;42.702;23.200;2023-07-20T00:18:11;3.25;;;2.03;;
55467;SDS011;41332;42.702;23.200;2023-07-20T00:20:37;6.88;;;2.33;;
55467;SDS011;41332;42.702;23.200;2023-07-20T00:23:03;10.80;;;2.42;;
55467;SDS011;41332;42.702;23.200;2023-07-20T00:25:28;2.78;;;2.55;;
55467;SDS011;41332;42.702;23.200;2023-07-20T00:27:54;7.22;;;2.33;;
55467;SDS011;41332;42.702;23.200;2023-07-20T00:30:20;2.85;;;1.80;;
55467;SDS011;41332;42.702;23.200;2023-07-20T00:32:45;6.28;;;3.08;;
55467;SDS011;41332;42.702;23.200;2023-07-20T00:35:11;3.40;;;1.98;;
55467;SDS011;41332;42.702;23.200;2023-07-20T00:37:37;2.08;;;1.90;;
55467;SDS011;41332;42.702;23.200;2023-07-20T00:42:29;5.65;;;2.10;;
55467;SDS011;41332;42.702;23.200;2023-07-20T00:44:55;3.22;;;2.38;;
55467;SDS011;41332;42.702;23.200;2023-07-20T00:47:21;6.72;;;2.22;;
55467;SDS011;41332;42.702;23.200;2023-07-20T00:49:46;6.57;;;2.05;;
55467;SDS011;41332;42.702;23.200;2023-07-20T00:52:12;4.20;;;2.00;;
55467;SDS011;41332;42.702;23.200;2023-07-20T00:54:39;3.50;;;1.85;;
55467;SDS011;41332;42.702;23.200;2023-07-20T00:57:06;3.35;;;2.13;;
55467;SDS011;41332;42.702;23.200;2023-07-20T00:59:32;2.93;;;2.00;;
55467;SDS011;41332;42.702;23.200;2023-07-20T01:02:01;8.23;;;2.88;;
55467;SDS011;41332;42.702;23.200;2023-07-20T01:04:27;8.13;;;1.95;;
55467;SDS011;41332;42.702;23.200;2023-07-20T01:12:48;5.18;;;2.28;;
55467;SDS011;41332;42.702;23.200;2023-07-20T01:15:17;5.35;;;2.92;;
55467;SDS011;41332;42.702;23.200;2023-07-20T01:17:43;6.22;;;2.42;;
55467;SDS011;41332;42.702;23.200;2023-07-20T01:20:10;2.33;;;1.85;;
55467;SDS011;41332;42.702;23.200;2023-07-20T01:22:46;7.57;;;3.00;;
55467;SDS011;41332;42.702;23.200;2023-07-20T01:28:31;4.10;;;2.15;;
55467;SDS011;41332;42.702;23.200;2023-07-20T01:33:39;4.28;;;1.90;;
55467;SDS011;41332;42.702;23.200;2023-07-20T01:36:06;4.40;;;2.22;;
55467;SDS011;41332;42.702;23.200;2023-07-20T01:38:32;5.47;;;2.20;;
55467;SDS011;41332;42.702;23.200;2023-07-20T01:40:58;5.85;;;2.67;;
55467;SDS011;41332;42.702;23.200;2023-07-20T01:43:24;5.20;;;2.13;;
55467;SDS011;41332;42.702;23.200;2023-07-20T01:45:52;5.53;;;1.77;;
55467;SDS011;41332;42.702;23.200;2023-07-20T01:48:17;4.32;;;2.08;;
55467;SDS011;41332;42.702;23.200;2023-07-20T01:50:43;3.47;;;2.55;;
55467;SDS011;41332;42.702;23.200;2023-07-20T01:53:08;3.63;;;2.30;;
55467;SDS011;41332;42.702;23.200;2023-07-20T01:55:34;8.43;;;2.70;;
55467;SDS011;41332;42.702;23.200;2023-07-20T01:57:59;3.97;;;2.50;;
55467;SDS011;41332;42.702;23.200;2023-07-20T02:00:25;9.75;;;3.00;;
55467;SDS011;41332;42.702;23.200;2023-07-20T02:02:51;7.50;;;2.40;;
55467;SDS011;41332;42.702;23.200;2023-07-20T02:05:17;6.60;;;3.00;;
55467;SDS011;41332;42.702;23.200;2023-07-20T02:07:42;13.23;;;2.53;;
55467;SDS011;41332;42.702;23.200;2023-07-20T02:10:08;7.53;;;2.47;;
55467;SDS011;41332;42.702;23.200;2023-07-20T02:12:33;4.28;;;1.90;;
55467;SDS011;41332;42.702;23.200;2023-07-20T02:14:59;4.05;;;1.92;;
55467;SDS011;41332;42.702;23.200;2023-07-20T02:17:25;5.30;;;2.67;;
55467;SDS011;41332;42.702;23.200;2023-07-20T02:19:52;7.32;;;2.38;;
55467;SDS011;41332;42.702;23.200;2023-07-20T02:22:18;5.13;;;1.83;;
55467;SDS011;41332;42.702;23.200;2023-07-20T02:24:43;3.75;;;2.17;;
55467;SDS011;41332;42.702;23.200;2023-07-20T02:27:09;2.35;;;1.83;;
55467;SDS011;41332;42.702;23.200;2023-07-20T02:29:34;3.50;;;2.10;;
55467;SDS011;41332;42.702;23.200;2023-07-20T02:32:00;4.70;;;2.90;;
55467;SDS011;41332;42.702;23.200;2023-07-20T02:34:26;5.13;;;2.78;;
55467;SDS011;41332;42.702;23.200;2023-07-20T02:36:51;3.53;;;2.53;;
55467;SDS011;41332;42.702;23.200;2023-07-20T02:39:17;3.03;;;2.20;;
55467;SDS011;41332;42.702;23.200;2023-07-20T02:41:42;3.83;;;2.28;;
55467;SDS011;41332;42.702;23.200;2023-07-20T02:44:08;6.38;;;2.97;;
55467;SDS011;41332;42.702;23.200;2023-07-20T02:46:33;9.65;;;3.60;;
55467;SDS011;41332;42.702;23.200;2023-07-20T02:49:00;4.55;;;3.13;;
55467;SDS011;41332;42.702;23.200;2023-07-20T02:51:25;6.13;;;2.88;;
55467;SDS011;41332;42.702;23.200;2023-07-20T02:53:51;6.28;;;2.72;;
55467;SDS011;41332;42.702;23.200;2023-07-20T02:56:16;4.60;;;2.45;;
55467;SDS011;41332;42.702;23.200;2023-07-20T02:58:43;4.03;;;3.58;;
55467;SDS011;41332;42.702;23.200;2023-07-20T03:01:09;3.88;;;2.78;;
55467;SDS011;41332;42.702;23.200;2023-07-20T03:03:35;7.65;;;3.53;;
55467;SDS011;41332;42.702;23.200;2023-07-20T03:06:04;2.65;;;2.45;;
55467;SDS011;41332;42.702;23.200;2023-07-20T03:08:34;2.05;;;1.90;;
55467;SDS011;41332;42.702;23.200;2023-07-20T03:11:00;3.65;;;2.00;;
55467;SDS011;41332;42.702;23.200;2023-07-20T03:13:26;4.82;;;2.58;;
55467;SDS011;41332;42.702;23.200;2023-07-20T03:15:52;3.80;;;2.45;;
55467;SDS011;41332;42.702;23.200;2023-07-20T03:18:18;11.45;;;4.30;;
55467;SDS011;41332;42.702;23.200;2023-07-20T03:20:43;8.05;;;2.65;;
55467;SDS011;41332;42.702;23.200;2023-07-20T03:23:08;43.10;;;5.43;;
55467;SDS011;41332;42.702;23.200;2023-07-20T03:25:34;54.83;;;4.97;;
55467;SDS011;41332;42.702;23.200;2023-07-20T03:28:02;8.48;;;2.90;;
55467;SDS011;41332;42.702;23.200;2023-07-20T03:30:28;9.95;;;2.80;;
55467;SDS011;41332;42.702;23.200;2023-07-20T03:32:53;9.77;;;2.58;;
55467;SDS011;41332;42.702;23.200;2023-07-20T03:35:18;2.85;;;2.13;;
55467;SDS011;41332;42.702;23.200;2023-07-20T03:37:44;7.45;;;2.10;;
55467;SDS011;41332;42.702;23.200;2023-07-20T03:40:09;2.67;;;2.17;;
55467;SDS011;41332;42.702;23.200;2023-07-20T03:42:35;2.10;;;1.90;;
55467;SDS011;41332;42.702;23.200;2023-07-20T03:45:01;4.65;;;3.40;;
55467;SDS011;41332;42.702;23.200;2023-07-20T03:47:29;6.38;;;2.22;;
55467;SDS011;41332;42.702;23.200;2023-07-20T03:49:54;6.90;;;3.13;;
55467;SDS011;41332;42.702;23.200;2023-07-20T03:52:20;5.18;;;2.35;;
55467;SDS011;41332;42.702;23.200;2023-07-20T03:54:45;6.38;;;2.08;;
55467;SDS011;41332;42.702;23.200;2023-07-20T03:57:11;5.43;;;2.17;;
55467;SDS011;41332;42.702;23.200;2023-07-20T03:59:37;3.33;;;2.83;;
55467;SDS011;41332;42.702;23.200;2023-07-20T04:02:02;5.22;;;2.25;;
55467;SDS011;41332;42.702;23.200;2023-07-20T04:04:30;5.35;;;2.38;;
55467;SDS011;41332;42.702;23.200;2023-07-20T04:06:56;4.85;;;2.83;;
55467;SDS011;41332;42.702;23.200;2023-07-20T04:09:21;5.82;;;2.72;;
55467;SDS011;41332;42.702;23.200;2023-07-20T04:11:47;4.40;;;2.70;;
55467;SDS011;41332;42.702;23.200;2023-07-20T04:14:12;9.20;;;2.60;;
55467;SDS011;41332;42.702;23.200;2023-07-20T04:16:37;5.00;;;2.70;;
55467;SDS011;41332;42.702;23.200;2023-07-20T04:19:03;8.60;;;2.90;;
55467;SDS011;41332;42.702;23.200;2023-07-20T04:21:28;6.10;;;3.05;;
55467;SDS011;41332;42.702;23.200;2023-07-20T04:23:54;11.45;;;2.38;;
55467;SDS011;41332;42.702;23.200;2023-07-20T04:26:19;5.13;;;3.17;;
55467;SDS011;41332;42.702;23.200;2023-07-20T04:28:45;10.82;;;2.90;;
55467;SDS011;41332;42.702;23.200;2023-07-20T04:31:13;11.50;;;3.78;;
55467;SDS011;41332;42.702;23.200;2023-07-20T04:33:40;7.63;;;2.70;;
55467;SDS011;41332;42.702;23.200;2023-07-20T04:36:05;8.07;;;3.40;;
55467;SDS011;41332;42.702;23.200;2023-07-20T04:38:32;6.30;;;2.80;;
55467;SDS011;41332;42.702;23.200;2023-07-20T04:40:57;6.45;;;2.38;;
55467;SDS011;41332;42.702;23.200;2023-07-20T04:43:23;6.22;;;2.38;;
55467;SDS011;41332;42.702;23.200;2023-07-20T04:45:48;6.03;;;2.53;;
55467;SDS011;41332;42.702;23.200;2023-07-20T04:48:15;9.77;;;4.80;;
55467;SDS011;41332;42.702;23.200;2023-07-20T04:50:42;6.18;;;2.85;;
55467;SDS011;41332;42.702;23.200;2023-07-20T04:53:08;7.50;;;3.00;;
55467;SDS011;41332;42.702;23.200;2023-07-20T04:55:35;9.02;;;3.67;;
55467;SDS011;41332;42.702;23.200;2023-07-20T04:58:02;7.63;;;3.28;;
55467;SDS011;41332;42.702;23.200;2023-07-20T05:00:28;9.63;;;4.00;;
55467;SDS011;41332;42.702;23.200;2023-07-20T05:02:54;10.90;;;5.10;;
55467;SDS011;41332;42.702;23.200;2023-07-20T05:05:20;8.63;;;4.13;;
55467;SDS011;41332;42.702;23.200;2023-07-20T05:07:45;8.10;;;3.90;;
55467;SDS011;41332;42.702;23.200;2023-07-20T05:10:11;7.80;;;2.85;;
55467;SDS011;41332;42.702;23.200;2023-07-20T05:12:36;6.20;;;4.40;;
55467;SDS011;41332;42.702;23.200;2023-07-20T05:15:02;8.65;;;3.80;;
55467;SDS011;41332;42.702;23.200;2023-07-20T05:17:28;10.33;;;4.97;;
55467;SDS011;41332;42.702;23.200;2023-07-20T05:19:54;11.63;;;4.38;;
55467;SDS011;41332;42.702;23.200;2023-07-20T05:22:19;10.43;;;4.53;;
55467;SDS011;41332;42.702;23.200;2023-07-20T05:24:45;7.97;;;4.78;;
55467;SDS011;41332;42.702;23.200;2023-07-20T05:27:10;11.55;;;5.18;;
55467;SDS011;41332;42.702;23.200;2023-07-20T05:29:36;10.20;;;4.70;;
55467;SDS011;41332;42.702;23.200;2023-07-20T05:32:01;12.75;;;5.40;;
55467;SDS011;41332;42.702;23.200;2023-07-20T05:34:27;13.63;;;4.68;;
55467;SDS011;41332;42.702;23.200;2023-07-20T05:36:53;9.40;;;5.05;;
55467;SDS011;41332;42.702;23.200;2023-07-20T05:39:19;12.35;;;5.25;;
55467;SDS011;41332;42.702;23.200;2023-07-20T05:41:44;12.73;;;4.95;;
55467;SDS011;41332;42.702;23.200;2023-07-20T05:44:09;8.05;;;4.95;;
55467;SDS011;41332;42.702;23.200;2023-07-20T05:46:35;13.10;;;4.90;;
55467;SDS011;41332;42.702;23.200;2023-07-20T05:49:00;7.53;;;4.90;;
55467;SDS011;41332;42.702;23.200;2023-07-20T05:51:26;11.85;;;5.03;;
55467;SDS011;41332;42.702;23.200;2023-07-20T05:53:52;8.00;;;5.70;;
55467;SDS011;41332;42.702;23.200;2023-07-20T05:56:17;7.25;;;4.97;;
55467;SDS011;41332;42.702;23.200;2023-07-20T05:58:43;10.75;;;4.65;;
55467;SDS011;41332;42.702;23.200;2023-07-20T06:01:08;11.23;;;4.55;;
55467;SDS011;41332;42.702;23.200;2023-07-20T06:03:34;10.55;;;4.90;;
55467;SDS011;41332;42.702;23.200;2023-07-20T06:06:03;8.57;;;4.25;;
55467;SDS011;41332;42.702;23.200;2023-07-20T06:08:29;8.80;;;5.50;;
55467;SDS011;41332;42.702;23.200;2023-07-20T06:10:56;9.65;;;4.93;;
55467;SDS011;41332;42.702;23.200;2023-07-20T06:13:21;7.28;;;4.47;;
55467;SDS011;41332;42.702;23.200;2023-07-20T06:15:47;12.88;;;4.30;;
55467;SDS011;41332;42.702;23.200;2023-07-20T06:18:12;7.18;;;3.78;;
55467;SDS011;41332;42.702;23.200;2023-07-20T06:20:38;8.33;;;4.07;;
55467;SDS011;41332;42.702;23.200;2023-07-20T06:23:04;6.55;;;3.90;;
55467;SDS011;41332;42.702;23.200;2023-07-20T06:25:29;4.65;;;3.65;;
55467;SDS011;41332;42.702;23.200;2023-07-20T06:27:55;9.13;;;4.53;;
55467;SDS011;41332;42.702;23.200;2023-07-20T06:30:21;12.50;;;3.63;;
55467;SDS011;41332;42.702;23.200;2023-07-20T06:32:46;8.23;;;3.43;;
55467;SDS011;41332;42.702;23.200;2023-07-20T06:35:12;7.70;;;3.93;;
55467;SDS011;41332;42.702;23.200;2023-07-20T06:37:38;7.27;;;2.87;;
55467;SDS011;41332;42.702;23.200;2023-07-20T06:40:04;9.97;;;3.03;;
55467;SDS011;41332;42.702;23.200;2023-07-20T06:42:30;5.32;;;3.08;;
55467;SDS011;41332;42.702;23.200;2023-07-20T06:44:56;7.70;;;3.15;;
55467;SDS011;41332;42.702;23.200;2023-07-20T06:47:22;5.47;;;2.60;;
55467;SDS011;41332;42.702;23.200;2023-07-20T06:49:47;10.60;;;2.73;;
55467;SDS011;41332;42.702;23.200;2023-07-20T06:52:13;7.93;;;3.17;;
55467;SDS011;41332;42.702;23.200;2023-07-20T06:54:38;13.07;;;3.30;;
55467;SDS011;41332;42.702;23.200;2023-07-20T06:57:04;5.67;;;4.17;;
55467;SDS011;41332;42.702;23.200;2023-07-20T06:59:30;4.90;;;2.95;;
55467;SDS011;41332;42.702;23.200;2023-07-20T07:01:55;12.67;;;3.10;;
55467;SDS011;41332;42.702;23.200;2023-07-20T07:04:21;7.17;;;2.83;;
55467;SDS011;41332;42.702;23.200;2023-07-20T07:06:46;14.90;;;4.10;;
55467;SDS011;41332;42.702;23.200;2023-07-20T07:09:12;6.83;;;2.90;;
55467;SDS011;41332;42.702;23.200;2023-07-20T07:11:37;9.97;;;4.93;;
55467;SDS011;41332;42.702;23.200;2023-07-20T07:14:02;5.47;;;3.27;;
55467;SDS011;41332;42.702;23.200;2023-07-20T07:16:28;6.50;;;3.33;;
55467;SDS011;41332;42.702;23.200;2023-07-20T07:18:53;3.87;;;3.40;;
55467;SDS011;41332;42.702;23.200;2023-07-20T07:21:19;10.73;;;4.73;;
55467;SDS011;41332;42.702;23.200;2023-07-20T07:23:45;6.60;;;3.07;;
55467;SDS011;41332;42.702;23.200;2023-07-20T07:26:10;6.25;;;3.42;;
55467;SDS011;41332;42.702;23.200;2023-07-20T07:28:36;3.50;;;2.33;;
55467;SDS011;41332;42.702;23.200;2023-07-20T07:31:04;3.75;;;2.67;;
55467;SDS011;41332;42.702;23.200;2023-07-20T07:33:30;5.65;;;2.85;;
55467;SDS011;41332;42.702;23.200;2023-07-20T07:35:55;9.60;;;2.73;;
55467;SDS011;41332;42.702;23.200;2023-07-20T07:38:21;7.10;;;3.50;;
55467;SDS011;41332;42.702;23.200;2023-07-20T07:40:46;10.30;;;3.37;;
55467;SDS011;41332;42.702;23.200;2023-07-20T07:43:12;6.83;;;3.73;;
55467;SDS011;41332;42.702;23.200;2023-07-20T07:45:38;11.75;;;3.50;;
55467;SDS011;41332;42.702;23.200;2023-07-20T07:48:04;5.25;;;3.30;;
55467;SDS011;41332;42.702;23.200;2023-07-20T07:50:30;9.87;;;3.47;;
55467;SDS011;41332;42.702;23.200;2023-07-20T07:52:56;10.63;;;3.23;;
55467;SDS011;41332;42.702;23.200;2023-07-20T07:55:21;5.70;;;2.77;;
55467;SDS011;41332;42.702;23.200;2023-07-20T07:57:47;9.70;;;2.67;;
55467;SDS011;41332;42.702;23.200;2023-07-20T08:00:12;9.40;;;2.90;;
55467;SDS011;41332;42.702;23.200;2023-07-20T08:02:42;7.22;;;2.95;;
55467;SDS011;41332;42.702;23.200;2023-07-20T08:05:08;6.70;;;3.05;;
55467;SDS011;41332;42.702;23.200;2023-07-20T08:07:34;3.08;;;2.08;;
55467;SDS011;41332;42.702;23.200;2023-07-20T08:10:00;8.45;;;2.28;;
55467;SDS011;41332;42.702;23.200;2023-07-20T08:12:26;8.80;;;3.77;;
55467;SDS011;41332;42.702;23.200;2023-07-20T08:14:52;5.57;;;2.42;;
55467;SDS011;41332;42.702;23.200;2023-07-20T08:17:17;5.40;;;1.83;;
55467;SDS011;41332;42.702;23.200;2023-07-20T08:19:43;4.43;;;1.70;;
55467;SDS011;41332;42.702;23.200;2023-07-20T08:22:09;5.63;;;1.95;;
55467;SDS011;41332;42.702;23.200;2023-07-20T08:24:35;5.33;;;1.77;;
55467;SDS011;41332;42.702;23.200;2023-07-20T08:27:03;4.38;;;3.08;;
55467;SDS011;41332;42.702;23.200;2023-07-20T08:29:29;4.73;;;1.97;;
55467;SDS011;41332;42.702;23.200;2023-07-20T08:31:54;8.37;;;2.30;;
55467;SDS011;41332;42.702;23.200;2023-07-20T08:34:20;14.87;;;3.90;;
55467;SDS011;41332;42.702;23.200;2023-07-20T08:36:45;3.33;;;1.83;;
55467;SDS011;41332;42.702;23.200;2023-07-20T08:39:10;5.93;;;1.80;;
55467;SDS011;41332;42.702;23.200;2023-07-20T08:41:36;8.13;;;2.07;;
55467;SDS011;41332;42.702;23.200;2023-07-20T08:44:05;6.22;;;1.85;;
55467;SDS011;41332;42.702;23.200;2023-07-20T08:46:30;4.13;;;1.83;;
55467;SDS011;41332;42.702;23.200;2023-07-20T08:48:57;6.03;;;1.73;;
55467;SDS011;41332;42.702;23.200;2023-07-20T08:51:23;4.03;;;2.00;;
55467;SDS011;41332;42.702;23.200;2023-07-20T08:53:49;3.90;;;1.85;;
55467;SDS011;41332;42.702;23.200;2023-07-20T08:56:16;6.07;;;1.95;;
55467;SDS011;41332;42.702;23.200;2023-07-20T08:58:44;4.15;;;1.73;;
55467;SDS011;41332;42.702;23.200;2023-07-20T09:01:10;4.53;;;2.78;;
55467;SDS011;41332;42.702;23.200;2023-07-20T09:03:36;4.40;;;1.97;;
55467;SDS011;41332;42.702;23.200;2023-07-20T09:06:05;7.00;;;1.95;;
55467;SDS011;41332;42.702;23.200;2023-07-20T09:08:31;3.63;;;1.52;;
55467;SDS011;41332;42.702;23.200;2023-07-20T09:10:56;5.50;;;1.43;;
55467;SDS011;41332;42.702;23.200;2023-07-20T09:13:22;7.00;;;2.40;;
55467;SDS011;41332;42.702;23.200;2023-07-20T09:15:53;5.45;;;1.60;;
55467;SDS011;41332;42.702;23.200;2023-07-20T09:18:26;5.00;;;1.77;;
55467;SDS011;41332;42.702;23.200;2023-07-20T09:20:53;5.95;;;1.63;;
55467;SDS011;41332;42.702;23.200;2023-07-20T09:23:34;4.28;;;1.65;;
55467;SDS011;41332;42.702;23.200;2023-07-20T09:26:11;6.00;;;1.58;;
55467;SDS011;41332;42.702;23.200;2023-07-20T09:28:43;4.20;;;1.90;;
55467;SDS011;41332;42.702;23.200;2023-07-20T09:31:16;5.55;;;1.48;;
55467;SDS011;41332;42.702;23.200;2023-07-20T09:33:46;4.85;;;1.75;;
55467;SDS011;41332;42.702;23.200;2023-07-20T09:36:12;4.50;;;1.90;;
55467;SDS011;41332;42.702;23.200;2023-07-20T09:38:38;5.13;;;1.55;;
55467;SDS011;41332;42.702;23.200;2023-07-20T09:41:06;2.75;;;1.63;;
55467;SDS011;41332;42.702;23.200;2023-07-20T09:43:32;8.13;;;2.47;;
55467;SDS011;41332;42.702;23.200;2023-07-20T09:45:59;3.30;;;1.65;;
55467;SDS011;41332;42.702;23.200;2023-07-20T09:48:25;4.77;;;1.47;;
55467;SDS011;41332;42.702;23.200;2023-07-20T09:50:53;2.60;;;1.48;;
55467;SDS011;41332;42.702;23.200;2023-07-20T09:53:19;3.87;;;1.73;;
55467;SDS011;41332;42.702;23.200;2023-07-20T09:55:45;6.05;;;1.80;;
55467;SDS011;41332;42.702;23.200;2023-07-20T09:58:12;5.35;;;1.88;;
55467;SDS011;41332;42.702;23.200;2023-07-20T10:00:39;8.20;;;1.70;;
55467;SDS011;41332;42.702;23.200;2023-07-20T10:03:06;4.53;;;1.73;;
55467;SDS011;41332;42.702;23.200;2023-07-20T10:05:43;7.28;;;1.67;;
55467;SDS011;41332;42.702;23.200;2023-07-20T10:08:12;5.63;;;2.10;;
55467;SDS011;41332;42.702;23.200;2023-07-20T10:10:38;3.70;;;1.58;;
55467;SDS011;41332;42.702;23.200;2023-07-20T10:13:05;3.13;;;1.90;;
55467;SDS011;41332;42.702;23.200;2023-07-20T10:15:42;5.97;;;1.45;;
55467;SDS011;41332;42.702;23.200;2023-07-20T10:18:29;5.25;;;1.65;;
55467;SDS011;41332;42.702;23.200;2023-07-20T10:20:59;7.75;;;1.58;;
55467;SDS011;41332;42.702;23.200;2023-07-20T10:23:26;3.70;;;1.45;;
55467;SDS011;41332;42.702;23.200;2023-07-20T10:25:57;6.43;;;1.50;;
55467;SDS011;41332;42.702;23.200;2023-07-20T10:30:49;3.97;;;1.60;;
55467;SDS011;41332;42.702;23.200;2023-07-20T10:33:16;5.03;;;1.65;;
55467;SDS011;41332;42.702;23.200;2023-07-20T10:36:01;4.63;;;1.42;;
55467;SDS011;41332;42.702;23.200;2023-07-20T10:38:39;3.17;;;1.65;;
55467;SDS011;41332;42.702;23.200;2023-07-20T10:43:44;7.28;;;2.22;;
55467;SDS011;41332;42.702;23.200;2023-07-20T10:46:10;6.72;;;1.88;;
55467;SDS011;41332;42.702;23.200;2023-07-20T10:48:58;8.57;;;1.85;;
55467;SDS011;41332;42.702;23.200;2023-07-20T10:51:29;2.83;;;1.90;;
55467;SDS011;41332;42.702;23.200;2023-07-20T10:54:03;6.03;;;1.80;;
55467;SDS011;41332;42.702;23.200;2023-07-20T10:56:33;3.80;;;1.52;;
55467;SDS011;41332;42.702;23.200;2023-07-20T10:58:59;3.53;;;1.50;;
55467;SDS011;41332;42.702;23.200;2023-07-20T11:01:28;3.90;;;1.92;;
55467;SDS011;41332;42.702;23.200;2023-07-20T11:03:57;2.88;;;1.40;;
55467;SDS011;41332;42.702;23.200;2023-07-20T11:09:02;6.87;;;2.20;;
55467;SDS011;41332;42.702;23.200;2023-07-20T11:11:44;4.63;;;1.83;;
55467;SDS011;41332;42.702;23.200;2023-07-20T11:14:22;4.40;;;2.28;;
55467;SDS011;41332;42.702;23.200;2023-07-20T11:16:48;3.25;;;1.65;;
55467;SDS011;41332;42.702;23.200;2023-07-20T11:19:20;3.72;;;1.95;;
55467;SDS011;41332;42.702;23.200;2023-07-20T11:21:52;11.30;;;2.03;;
55467;SDS011;41332;42.702;23.200;2023-07-20T11:24:19;4.88;;;1.80;;
55467;SDS011;41332;42.702;23.200;2023-07-20T11:26:46;3.20;;;1.70;;
55467;SDS011;41332;42.702;23.200;2023-07-20T11:29:13;7.05;;;2.08;;
55467;SDS011;41332;42.702;23.200;2023-07-20T11:31:40;2.50;;;2.28;;
55467;SDS011;41332;42.702;23.200;2023-07-20T11:34:09;3.75;;;2.53;;
55467;SDS011;41332;42.702;23.200;2023-07-20T11:36:37;5.32;;;2.40;;
55467;SDS011;41332;42.702;23.200;2023-07-20T11:39:03;4.28;;;2.65;;
55467;SDS011;41332;42.702;23.200;2023-07-20T11:41:30;3.30;;;2.45;;
55467;SDS011;41332;42.702;23.200;2023-07-20T11:46:21;4.70;;;2.75;;
55467;SDS011;41332;42.702;23.200;2023-07-20T11:48:47;2.60;;;2.40;;
55467;SDS011;41332;42.702;23.200;2023-07-20T11:51:13;4.70;;;2.20;;
55467;SDS011;41332;42.702;23.200;2023-07-20T11:53:40;7.28;;;2.67;;
55467;SDS011;41332;42.702;23.200;2023-07-20T11:56:05;5.57;;;2.80;;
55467;SDS011;41332;42.702;23.200;2023-07-20T11:58:31;5.25;;;2.20;;
55467;SDS011;41332;42.702;23.200;2023-07-20T12:00:57;4.10;;;2.50;;
55467;SDS011;41332;42.702;23.200;2023-07-20T12:03:22;4.03;;;2.27;;
55467;SDS011;41332;42.702;23.200;2023-07-20T12:05:48;4.93;;;2.20;;
55467;SDS011;41332;42.702;23.200;2023-07-20T12:08:15;4.30;;;2.00;;
55467;SDS011;41332;42.702;23.200;2023-07-20T12:10:40;5.47;;;2.27;;
55467;SDS011;41332;42.702;23.200;2023-07-20T12:13:09;6.65;;;2.88;;
55467;SDS011;41332;42.702;23.200;2023-07-20T12:15:35;4.25;;;1.80;;
55467;SDS011;41332;42.702;23.200;2023-07-20T12:18:01;2.58;;;2.35;;
55467;SDS011;41332;42.702;23.200;2023-07-20T12:20:34;5.85;;;2.03;;
55467;SDS011;41332;42.702;23.200;2023-07-20T12:28:07;7.20;;;2.40;;
55467;SDS011;41332;42.702;23.200;2023-07-20T12:30:34;4.68;;;1.83;;
55467;SDS011;41332;42.702;23.200;2023-07-20T12:32:59;5.40;;;1.67;;
55467;SDS011;41332;42.702;23.200;2023-07-20T12:35:25;2.87;;;2.10;;
55467;SDS011;41332;42.702;23.200;2023-07-20T12:37:50;4.67;;;2.27;;
55467;SDS011;41332;42.702;23.200;2023-07-20T12:40:16;4.93;;;1.85;;
55467;SDS011;41332;42.702;23.200;2023-07-20T12:42:42;4.18;;;1.92;;
55467;SDS011;41332;42.702;23.200;2023-07-20T12:45:08;6.57;;;2.37;;
55467;SDS011;41332;42.702;23.200;2023-07-20T12:47:33;4.50;;;2.03;;
55467;SDS011;41332;42.702;23.200;2023-07-20T12:49:59;5.33;;;1.77;;
55467;SDS011;41332;42.702;23.200;2023-07-20T12:52:25;7.63;;;1.83;;
55467;SDS011;41332;42.702;23.200;2023-07-20T12:54:50;8.60;;;2.23;;
55467;SDS011;41332;42.702;23.200;2023-07-20T12:57:16;2.38;;;1.90;;
55467;SDS011;41332;42.702;23.200;2023-07-20T12:59:41;5.57;;;1.83;;
55467;SDS011;41332;42.702;23.200;2023-07-20T13:02:07;5.27;;;2.00;;
55467;SDS011;41332;42.702;23.200;2023-07-20T13:04:32;5.40;;;1.70;;
55467;SDS011;41332;42.702;23.200;2023-07-20T13:06:58;4.37;;;1.67;;
55467;SDS011;41332;42.702;23.200;2023-07-20T13:09:23;3.37;;;2.40;;
55467;SDS011;41332;42.702;23.200;2023-07-20T13:11:50;6.10;;;2.65;;
55467;SDS011;41332;42.702;23.200;2023-07-20T13:14:16;10.55;;;2.30;;
55467;SDS011;41332;42.702;23.200;2023-07-20T13:16:42;5.07;;;1.97;;
55467;SDS011;41332;42.702;23.200;2023-07-20T13:19:07;12.77;;;3.83;;
55467;SDS011;41332;42.702;23.200;2023-07-20T13:21:33;3.90;;;1.90;;
55467;SDS011;41332;42.702;23.200;2023-07-20T13:23:58;5.57;;;2.20;;
55467;SDS011;41332;42.702;23.200;2023-07-20T13:26:23;4.63;;;2.20;;
55467;SDS011;41332;42.702;23.200;2023-07-20T13:28:49;4.17;;;1.77;;
55467;SDS011;41332;42.702;23.200;2023-07-20T13:31:14;4.60;;;2.33;;
55467;SDS011;41332;42.702;23.200;2023-07-20T13:33:41;2.42;;;1.80;;
55467;SDS011;41332;42.702;23.200;2023-07-20T13:36:06;4.90;;;2.23;;
55467;SDS011;41332;42.702;23.200;2023-07-20T13:38:31;4.03;;;2.10;;
55467;SDS011;41332;42.702;23.200;2023-07-20T13:40:57;6.73;;;2.23;;
55467;SDS011;41332;42.702;23.200;2023-07-20T13:43:23;4.28;;;1.77;;
55467;SDS011;41332;42.702;23.200;2023-07-20T13:45:48;4.13;;;2.30;;
55467;SDS011;41332;42.702;23.200;2023-07-20T13:48:13;6.57;;;2.77;;
55467;SDS011;41332;42.702;23.200;2023-07-20T13:50:40;3.67;;;1.90;;
55467;SDS011;41332;42.702;23.200;2023-07-20T13:53:05;2.38;;;1.30;;
55467;SDS011;41332;42.702;23.200;2023-07-20T13:55:31;4.93;;;1.87;;
55467;SDS011;41332;42.702;23.200;2023-07-20T13:57:58;7.07;;;1.75;;
55467;SDS011;41332;42.702;23.200;2023-07-20T14:00:24;4.10;;;1.77;;
55467;SDS011;41332;42.702;23.200;2023-07-20T14:02:51;2.72;;;1.52;;
55467;SDS011;41332;42.702;23.200;2023-07-20T14:05:18;7.93;;;1.88;;
55467;SDS011;41332;42.702;23.200;2023-07-20T14:07:44;4.45;;;2.00;;
55467;SDS011;41332;42.702;23.200;2023-07-20T14:10:09;8.10;;;1.80;;
55467;SDS011;41332;42.702;23.200;2023-07-20T14:12:35;3.67;;;1.53;;
55467;SDS011;41332;42.702;23.200;2023-07-20T14:15:00;3.37;;;2.20;;
55467;SDS011;41332;42.702;23.200;2023-07-20T14:17:26;2.50;;;1.50;;
55467;SDS011;41332;42.702;23.200;2023-07-20T14:19:52;7.33;;;1.50;;
55467;SDS011;41332;42.702;23.200;2023-07-20T14:22:18;4.28;;;1.80;;
55467;SDS011;41332;42.702;23.200;2023-07-20T14:24:43;7.90;;;2.10;;
55467;SDS011;41332;42.702;23.200;2023-07-20T14:27:09;1.97;;;1.50;;
55467;SDS011;41332;42.702;23.200;2023-07-20T14:29:34;3.60;;;1.60;;
55467;SDS011;41332;42.702;23.200;2023-07-20T14:32:01;3.50;;;1.70;;
55467;SDS011;41332;42.702;23.200;2023-07-20T14:34:28;6.55;;;1.95;;
55467;SDS011;41332;42.702;23.200;2023-07-20T14:36:54;4.70;;;1.70;;
55467;SDS011;41332;42.702;23.200;2023-07-20T14:39:20;2.78;;;1.55;;
55467;SDS011;41332;42.702;23.200;2023-07-20T14:41:45;10.40;;;1.73;;
55467;SDS011;41332;42.702;23.200;2023-07-20T14:44:11;4.17;;;1.87;;
55467;SDS011;41332;42.702;23.200;2023-07-20T14:46:36;3.17;;;1.90;;
55467;SDS011;41332;42.702;23.200;2023-07-20T14:49:01;1.87;;;1.47;;
55467;SDS011;41332;42.702;23.200;2023-07-20T14:51:27;6.57;;;1.98;;
55467;SDS011;41332;42.702;23.200;2023-07-20T14:53:58;1.85;;;1.75;;
55467;SDS011;41332;42.702;23.200;2023-07-20T14:56:24;5.38;;;3.20;;
55467;SDS011;41332;42.702;23.200;2023-07-20T14:58:49;9.27;;;1.60;;